createdAt,value
2022-10-23T00:00:42.738Z,8.98
2022-10-23T00:03:45.883Z,8.33
2022-10-23T00:06:49.828Z,8.32
2022-10-23T00:09:53.992Z,7.13
2022-10-23T00:12:56.656Z,7.47
2022-10-23T00:15:59.520Z,7.13
2022-10-23T00:19:02.148Z,10.97
2022-10-23T00:22:04.830Z,7.00
2022-10-23T00:25:10.999Z,8.13
2022-10-23T00:28:13.683Z,9.15
2022-10-23T00:31:16.873Z,7.15
2022-10-23T00:34:19.758Z,8.27
2022-10-23T00:37:22.429Z,7.88
2022-10-23T00:40:26.349Z,8.25
2022-10-23T00:43:32.065Z,7.68
2022-10-23T00:46:36.426Z,7.53
2022-10-23T00:49:41.958Z,8.20
2022-10-23T00:52:49.267Z,6.65
2022-10-23T00:55:57.559Z,7.85
2022-10-23T00:59:00.285Z,7.90
2022-10-23T01:02:02.957Z,7.90
2022-10-23T01:05:06.288Z,8.07
2022-10-23T01:08:17.754Z,9.30
2022-10-23T01:11:28.586Z,7.35
2022-10-23T01:14:38.782Z,7.28
2022-10-23T01:17:46.388Z,8.32
2022-10-23T01:20:54.670Z,8.07
2022-10-23T01:24:20.473Z,8.70
2022-10-23T01:27:27.948Z,7.45
2022-10-23T01:30:32.334Z,8.43
2022-10-23T01:33:40.319Z,7.80
2022-10-23T01:36:46.301Z,7.97
2022-10-23T01:39:53.719Z,8.60
2022-10-23T01:43:03.311Z,8.15
2022-10-23T01:46:10.430Z,6.60
2022-10-23T01:49:15.044Z,8.88
2022-10-23T01:52:19.348Z,8.75
2022-10-23T01:55:23.204Z,7.70
2022-10-23T01:58:30.855Z,9.98
2022-10-23T02:01:34.965Z,7.07
2022-10-23T02:04:41.029Z,7.45
2022-10-23T02:07:44.230Z,7.47
2022-10-23T02:10:53.664Z,7.80
2022-10-23T02:14:02.867Z,8.80
2022-10-23T02:17:16.071Z,8.30
2022-10-23T02:20:24.599Z,9.27
2022-10-23T02:23:33.755Z,7.43
2022-10-23T02:26:41.471Z,9.52
2022-10-23T02:29:49.475Z,8.30
2022-10-23T02:32:55.633Z,8.50
2022-10-23T02:35:58.313Z,7.05
2022-10-23T02:39:01.037Z,8.23
2022-10-23T02:42:09.727Z,8.00
2022-10-23T02:45:22.709Z,8.13
2022-10-23T02:48:33.982Z,8.40
2022-10-23T02:51:45.308Z,7.57
2022-10-23T02:55:08.158Z,8.45
2022-10-23T02:58:19.626Z,8.20
2022-10-23T03:01:28.911Z,8.07
2022-10-23T03:04:33.115Z,7.37
2022-10-23T03:07:36.791Z,8.15
2022-10-23T03:10:40.070Z,9.07
2022-10-23T03:13:43.031Z,7.85
2022-10-23T03:16:47.016Z,8.30
2022-10-23T03:19:49.687Z,8.07
2022-10-23T03:22:52.292Z,7.55
2022-10-23T03:25:56.510Z,8.30
2022-10-23T03:28:59.041Z,8.43
2022-10-23T03:32:03.055Z,7.53
2022-10-23T03:35:06.655Z,7.67
2022-10-23T03:38:09.216Z,7.38
2022-10-23T03:41:11.928Z,7.93
2022-10-23T03:44:14.488Z,6.88
2022-10-23T03:47:19.452Z,7.20
2022-10-23T03:50:21.999Z,6.73
2022-10-23T03:53:24.568Z,8.15
2022-10-23T03:56:27.412Z,7.45
2022-10-23T03:59:30.011Z,7.97
2022-10-23T04:02:34.261Z,8.00
2022-10-23T04:05:37.775Z,7.45
2022-10-23T04:08:40.361Z,7.22
2022-10-23T04:11:43.066Z,7.55
2022-10-23T04:14:45.633Z,8.75
2022-10-23T04:17:49.668Z,7.50
2022-10-23T04:20:52.583Z,7.07
2022-10-23T04:23:55.177Z,7.45
2022-10-23T04:26:57.888Z,8.15
2022-10-23T04:30:00.418Z,6.47
2022-10-23T04:33:04.589Z,8.03
2022-10-23T04:36:08.081Z,7.70
2022-10-23T04:39:10.860Z,6.93
2022-10-23T04:42:13.495Z,7.82
2022-10-23T04:45:16.167Z,7.40
2022-10-23T04:48:20.218Z,8.23
2022-10-23T04:51:22.812Z,8.27
2022-10-23T04:54:25.492Z,6.50
2022-10-23T04:57:28.178Z,7.65
2022-10-23T05:00:30.778Z,8.02
2022-10-23T05:03:34.890Z,7.13
2022-10-23T05:06:37.445Z,8.07
2022-10-23T05:09:40.118Z,7.97
2022-10-23T05:12:42.761Z,7.57
2022-10-23T05:15:45.351Z,7.95
2022-10-23T05:18:49.975Z,7.77
2022-10-23T05:21:55.931Z,8.75
2022-10-23T05:24:58.713Z,7.25
2022-10-23T05:28:01.266Z,7.90
2022-10-23T05:31:06.081Z,8.85
2022-10-23T05:34:13.344Z,9.77
2022-10-23T05:37:17.588Z,7.93
2022-10-23T05:40:20.701Z,8.13
2022-10-23T05:43:23.289Z,7.93
2022-10-23T05:46:27.893Z,8.63
2022-10-23T05:49:31.957Z,7.77
2022-10-23T05:52:34.497Z,7.35
2022-10-23T05:55:37.225Z,8.02
2022-10-23T05:58:39.787Z,9.18
2022-10-23T06:01:42.612Z,8.30
2022-10-23T06:04:46.579Z,7.50
2022-10-23T06:07:49.258Z,7.88
2022-10-23T06:10:51.983Z,8.68
2022-10-23T06:13:54.711Z,7.75
2022-10-23T06:16:57.478Z,7.30
2022-10-23T06:20:02.527Z,9.23
2022-10-23T06:23:05.349Z,7.60
2022-10-23T06:26:10.658Z,8.05
2022-10-23T06:29:13.226Z,7.18
2022-10-23T06:32:15.793Z,9.73
2022-10-23T06:35:19.698Z,8.57
2022-10-23T06:38:22.615Z,8.77
2022-10-23T06:41:25.272Z,8.77
2022-10-23T06:44:27.982Z,7.80
2022-10-23T06:47:30.534Z,8.40
2022-10-23T06:50:34.522Z,7.93
2022-10-23T06:53:37.946Z,8.10
2022-10-23T06:56:56.805Z,8.30
2022-10-23T06:59:59.476Z,7.60
2022-10-23T07:03:02.047Z,7.60
2022-10-23T07:06:08.303Z,7.00
2022-10-23T07:09:10.920Z,7.28
2022-10-23T07:12:13.474Z,7.97
2022-10-23T07:15:16.693Z,7.55
2022-10-23T07:18:19.523Z,8.85
2022-10-23T07:21:23.574Z,7.97
2022-10-23T07:24:26.412Z,8.05
2022-10-23T07:27:28.951Z,6.95
2022-10-23T07:30:31.789Z,8.05
2022-10-23T07:33:34.630Z,7.97
2022-10-23T07:36:38.715Z,7.87
2022-10-23T07:39:41.483Z,9.02
2022-10-23T07:42:44.214Z,9.63
2022-10-23T07:45:48.436Z,9.32
2022-10-23T07:48:51.109Z,9.45
2022-10-23T07:51:55.102Z,8.53
2022-10-23T07:54:57.796Z,9.82
2022-10-23T07:58:00.469Z,10.48
2022-10-23T08:01:05.194Z,9.13
2022-10-23T08:04:07.919Z,10.60
2022-10-23T08:07:11.842Z,9.67
2022-10-23T08:10:14.418Z,8.32
2022-10-23T08:13:17.358Z,10.63
2022-10-23T08:16:19.930Z,9.98
2022-10-23T08:19:22.710Z,10.07
2022-10-23T08:22:26.613Z,10.40
2022-10-23T08:25:29.473Z,9.65
2022-10-23T08:28:33.124Z,10.23
2022-10-23T08:31:35.824Z,9.10
2022-10-23T08:34:38.562Z,10.75
2022-10-23T08:37:42.605Z,9.37
2022-10-23T08:40:47.063Z,9.32
2022-10-23T08:43:55.425Z,10.40
2022-10-23T08:47:04.505Z,10.68
2022-10-23T08:50:18.095Z,8.05
2022-10-23T08:53:29.571Z,8.70
2022-10-23T08:56:35.514Z,7.53
2022-10-23T08:59:44.874Z,7.45
2022-10-23T09:02:49.718Z,7.60
2022-10-23T09:06:05.873Z,8.32
2022-10-23T09:09:26.007Z,10.00
2022-10-23T09:12:31.033Z,8.57
2022-10-23T09:15:40.905Z,7.15
2022-10-23T09:18:44.234Z,9.30
2022-10-23T09:21:50.304Z,6.40
2022-10-23T09:24:54.356Z,10.13
2022-10-23T09:28:04.293Z,7.80
2022-10-23T09:31:08.537Z,9.18
2022-10-23T09:34:20.780Z,6.10
2022-10-23T09:37:25.863Z,16.38
2022-10-23T09:40:37.180Z,6.72
2022-10-23T09:43:39.928Z,6.13
2022-10-23T09:46:44.917Z,7.15
2022-10-23T09:49:49.599Z,7.22
2022-10-23T09:52:55.541Z,7.05
2022-10-23T09:56:02.544Z,7.95
2022-10-23T09:59:21.861Z,5.77
2022-10-23T10:02:29.539Z,6.60
2022-10-23T10:05:34.835Z,6.15
2022-10-23T10:08:44.327Z,6.13
2022-10-23T10:11:53.756Z,5.95
2022-10-23T10:15:07.123Z,5.10
2022-10-23T10:18:17.017Z,5.78
2022-10-23T10:21:25.889Z,6.07
2022-10-23T10:24:33.321Z,4.60
2022-10-23T10:27:46.756Z,5.95
2022-10-23T10:31:01.368Z,5.30
2022-10-23T10:34:13.355Z,5.00
2022-10-23T10:37:26.396Z,5.03
2022-10-23T10:40:34.556Z,4.85
2022-10-23T10:43:47.806Z,5.20
2022-10-23T10:46:57.827Z,6.30
2022-10-23T10:50:16.178Z,5.05
2022-10-23T10:53:24.759Z,4.25
2022-10-23T10:56:30.791Z,4.97
2022-10-23T10:59:39.216Z,4.45
2022-10-23T11:02:47.172Z,5.60
2022-10-23T11:05:51.152Z,4.10
2022-10-23T11:09:03.973Z,3.72
2022-10-23T11:12:20.355Z,4.78
2022-10-23T11:15:29.646Z,4.65
2022-10-23T11:18:33.542Z,5.30
2022-10-23T11:21:42.434Z,4.80
2022-10-23T11:25:08.946Z,4.95
2022-10-23T11:28:33.752Z,6.57
2022-10-23T11:31:44.787Z,6.45
2022-10-23T11:35:03.533Z,4.93
2022-10-23T11:38:17.325Z,6.00
2022-10-23T11:41:25.591Z,5.65
2022-10-23T11:44:41.899Z,4.93
2022-10-23T11:47:45.802Z,5.45
2022-10-23T11:50:54.873Z,7.97
2022-10-23T11:54:08.921Z,8.07
2022-10-23T11:57:14.041Z,6.57
2022-10-23T12:00:21.961Z,3.65
2022-10-23T12:03:31.528Z,5.60
2022-10-23T12:06:40.403Z,4.77
2022-10-23T12:09:45.923Z,6.47
2022-10-23T12:12:57.031Z,4.35
2022-10-23T12:16:00.968Z,6.07
2022-10-23T12:19:20.701Z,4.38
2022-10-23T12:22:29.274Z,5.57
2022-10-23T12:25:41.299Z,3.90
2022-10-23T12:28:51.107Z,5.30
2022-10-23T12:31:59.849Z,5.70
2022-10-23T12:35:20.600Z,6.18
2022-10-23T12:38:25.336Z,5.05
2022-10-23T12:41:29.853Z,5.72
2022-10-23T12:44:32.486Z,5.17
2022-10-23T12:47:35.177Z,3.85
2022-10-23T12:50:39.101Z,5.35
2022-10-23T12:53:41.773Z,5.30
2022-10-23T12:56:45.189Z,3.42
2022-10-23T12:59:47.801Z,3.77
2022-10-23T13:02:59.264Z,3.72
2022-10-23T13:06:04.633Z,5.18
2022-10-23T13:09:14.173Z,3.85
2022-10-23T13:12:22.412Z,3.58
2022-10-23T13:15:26.844Z,4.00
2022-10-23T13:18:29.412Z,6.38
2022-10-23T13:21:33.793Z,4.38
2022-10-23T13:24:36.386Z,4.25
2022-10-23T13:27:38.969Z,4.78
2022-10-23T13:30:43.494Z,6.90
2022-10-23T13:33:47.501Z,3.90
2022-10-23T13:37:00.827Z,4.45
2022-10-23T13:40:05.389Z,4.32
2022-10-23T13:43:18.936Z,4.78
2022-10-23T13:46:24.389Z,5.27
2022-10-23T13:49:27.059Z,4.70
2022-10-23T13:52:30.995Z,4.97
2022-10-23T13:55:34.120Z,5.18
2022-10-23T13:58:36.846Z,3.95
2022-10-23T14:01:39.805Z,5.40
2022-10-23T14:04:42.481Z,4.75
2022-10-23T14:07:46.713Z,4.93
2022-10-23T14:10:49.638Z,4.22
2022-10-23T14:13:52.854Z,4.70
2022-10-23T14:16:55.540Z,3.90
2022-10-23T14:19:58.081Z,4.60
2022-10-23T14:23:02.093Z,5.35
2022-10-23T14:26:05.038Z,4.28
2022-10-23T14:29:10.291Z,5.43
2022-10-23T14:32:18.846Z,5.97
2022-10-23T14:35:21.524Z,5.70
2022-10-23T14:38:25.777Z,5.47
2022-10-23T14:41:28.682Z,4.68
2022-10-23T14:44:31.441Z,6.55
2022-10-23T14:47:34.271Z,7.03
2022-10-23T14:50:38.584Z,5.47
2022-10-23T14:53:42.622Z,5.22
2022-10-23T14:56:45.206Z,6.55
2022-10-23T14:59:47.858Z,6.10
2022-10-23T15:02:50.533Z,4.87
2022-10-23T15:05:53.391Z,5.78
2022-10-23T15:08:57.922Z,4.90
2022-10-23T15:12:00.598Z,5.28
2022-10-23T15:15:03.302Z,6.38
2022-10-23T15:18:06.226Z,5.53
2022-10-23T15:21:09.382Z,5.05
2022-10-23T15:24:13.395Z,6.75
2022-10-23T15:27:16.091Z,6.55
2022-10-23T15:30:19.315Z,4.85
2022-10-23T15:33:22.726Z,5.23
2022-10-23T15:36:25.421Z,4.85
2022-10-23T15:39:35.638Z,3.88
2022-10-23T15:42:38.234Z,3.87
2022-10-23T15:45:41.137Z,6.57
2022-10-23T15:48:43.708Z,7.25
2022-10-23T15:51:46.671Z,5.32
2022-10-23T15:54:50.822Z,7.60
2022-10-23T15:57:53.550Z,6.43
2022-10-23T16:00:56.323Z,5.25
2022-10-23T16:03:58.900Z,7.38
2022-10-23T16:07:01.494Z,5.85
2022-10-23T16:10:06.331Z,8.00
2022-10-23T16:13:09.289Z,7.57
2022-10-23T16:16:12.806Z,5.95
2022-10-23T16:19:15.402Z,6.13
2022-10-23T16:22:18.540Z,7.05
2022-10-23T16:25:22.577Z,7.78
2022-10-23T16:28:25.233Z,9.17
2022-10-23T16:31:29.732Z,8.23
2022-10-23T16:34:32.497Z,10.35
2022-10-23T16:37:35.276Z,8.07
2022-10-23T16:40:39.614Z,9.05
2022-10-23T16:43:42.155Z,7.57
2022-10-23T16:46:44.836Z,7.18
2022-10-23T16:49:47.409Z,6.80
2022-10-23T16:52:53.277Z,8.07
2022-10-23T16:55:59.727Z,8.63
2022-10-23T16:59:02.536Z,8.60
2022-10-23T17:02:05.589Z,6.63
2022-10-23T17:05:08.869Z,8.18
2022-10-23T17:08:11.413Z,6.90
2022-10-23T17:11:17.348Z,6.65
2022-10-23T17:14:21.078Z,8.23
2022-10-23T17:17:23.760Z,6.70
2022-10-23T17:20:26.447Z,5.70
2022-10-23T17:23:29.451Z,7.78
2022-10-23T17:26:34.112Z,9.30
2022-10-23T17:29:37.095Z,6.73
2022-10-23T17:32:39.885Z,8.98
2022-10-23T17:35:44.546Z,8.55
2022-10-23T17:38:47.357Z,7.93
2022-10-23T17:41:51.988Z,10.00
2022-10-23T17:44:54.705Z,7.60
2022-10-23T17:47:57.567Z,7.70
2022-10-23T17:51:06.078Z,9.98
2022-10-23T17:54:13.227Z,8.52
2022-10-23T17:57:17.197Z,9.50
2022-10-23T18:00:19.958Z,6.83
2022-10-23T18:03:22.673Z,7.20
2022-10-23T18:06:29.626Z,8.90
2022-10-23T18:09:32.467Z,7.63
2022-10-23T18:12:36.591Z,8.02
2022-10-23T18:15:39.662Z,7.57
2022-10-23T18:18:44.010Z,7.35
2022-10-23T18:21:47.612Z,7.10
2022-10-23T18:24:50.347Z,7.70
2022-10-23T18:27:56.366Z,8.13
2022-10-23T18:31:02.032Z,10.20
2022-10-23T18:34:07.746Z,7.45
2022-10-23T18:37:10.490Z,8.52
2022-10-23T18:40:13.886Z,7.23
2022-10-23T18:43:31.410Z,7.75
2022-10-23T18:46:40.796Z,7.20
2022-10-23T18:49:44.280Z,8.60
2022-10-23T18:52:49.747Z,7.70
2022-10-23T18:55:52.393Z,7.00
2022-10-23T18:58:58.100Z,8.60
2022-10-23T19:02:00.953Z,9.35
2022-10-23T19:05:05.032Z,8.00
2022-10-23T19:08:07.825Z,11.13
2022-10-23T19:11:11.754Z,9.17
2022-10-23T19:14:15.864Z,9.48
2022-10-23T19:17:21.946Z,8.98
2022-10-23T19:20:24.676Z,8.00
2022-10-23T19:23:29.991Z,8.82
2022-10-23T19:26:35.617Z,8.00
2022-10-23T19:29:43.724Z,8.80
2022-10-23T19:32:47.346Z,8.02
2022-10-23T19:35:50.196Z,8.23
2022-10-23T19:38:52.825Z,7.35
2022-10-23T19:41:57.748Z,8.33
2022-10-23T19:45:01.987Z,6.75
2022-10-23T19:48:04.835Z,7.93
2022-10-23T19:51:08.760Z,8.63
2022-10-23T19:54:11.633Z,8.48
2022-10-23T19:57:14.988Z,9.20
2022-10-23T20:00:20.772Z,9.65
2022-10-23T20:03:23.604Z,8.82
2022-10-23T20:06:28.957Z,7.47
2022-10-23T20:09:31.831Z,9.02
2022-10-23T20:12:34.799Z,7.43
2022-10-23T20:15:40.628Z,8.38
2022-10-23T20:18:43.362Z,9.10
2022-10-23T20:21:48.185Z,7.97
2022-10-23T20:24:51.029Z,7.60
2022-10-23T20:27:53.744Z,8.00
2022-10-23T20:30:57.683Z,7.82
2022-10-23T20:34:00.833Z,7.85
2022-10-23T20:37:03.640Z,8.80
2022-10-23T20:40:07.283Z,8.25
2022-10-23T20:43:09.980Z,7.90
2022-10-23T20:46:14.072Z,9.30
2022-10-23T20:49:17.826Z,9.32
2022-10-23T20:52:22.064Z,8.70
2022-10-23T20:55:24.961Z,8.55
2022-10-23T20:58:27.744Z,7.50
2022-10-23T21:01:32.775Z,7.53
2022-10-23T21:04:35.612Z,8.27
2022-10-23T21:07:38.348Z,8.75
2022-10-23T21:10:46.987Z,8.82
2022-10-23T21:13:49.711Z,16.30
2022-10-23T21:16:53.812Z,9.88
2022-10-23T21:19:56.558Z,19.85
2022-10-23T21:22:59.241Z,12.88
2022-10-23T21:26:06.211Z,10.07
2022-10-23T21:29:19.755Z,14.80
2022-10-23T21:32:24.718Z,11.70
2022-10-23T21:35:30.138Z,11.10
2022-10-23T21:38:33.242Z,10.77
2022-10-23T21:41:35.840Z,9.98
2022-10-23T21:44:38.658Z,12.23
2022-10-23T21:47:42.976Z,12.57
2022-10-23T21:50:46.037Z,11.65
2022-10-23T21:53:48.935Z,9.73
2022-10-23T21:56:59.589Z,11.52
2022-10-23T22:00:02.456Z,11.17
2022-10-23T22:03:06.431Z,9.50
2022-10-23T22:06:10.939Z,11.68
2022-10-23T22:09:16.033Z,9.95
2022-10-23T22:12:18.643Z,9.23
2022-10-23T22:15:21.437Z,9.53
2022-10-23T22:18:25.713Z,10.25
2022-10-23T22:21:30.824Z,9.07
2022-10-23T22:24:33.682Z,9.30
2022-10-23T22:27:38.062Z,10.57
2022-10-23T22:30:40.775Z,10.63
2022-10-23T22:33:44.933Z,10.90
2022-10-23T22:36:47.784Z,10.40
2022-10-23T22:39:52.183Z,9.70
2022-10-23T22:42:54.849Z,9.30
2022-10-23T22:46:03.362Z,10.03
2022-10-23T22:49:07.537Z,8.60
2022-10-23T22:52:10.309Z,9.02
2022-10-23T22:55:13.094Z,9.50
2022-10-23T22:58:15.751Z,9.30
2022-10-23T23:01:20.795Z,10.60
2022-10-23T23:04:40.023Z,8.80
2022-10-23T23:07:42.965Z,9.18
2022-10-23T23:10:55.583Z,9.93
2022-10-23T23:13:58.330Z,10.20
2022-10-23T23:17:01.044Z,10.63
2022-10-23T23:20:05.712Z,10.27
2022-10-23T23:23:08.484Z,8.90
2022-10-23T23:26:11.362Z,8.65
2022-10-23T23:29:13.988Z,6.44
2022-10-23T23:32:16.536Z,11.02
2022-10-23T23:35:21.165Z,8.98
2022-10-23T23:38:23.934Z,8.50
2022-10-23T23:41:28.652Z,7.93
2022-10-23T23:44:31.465Z,7.22
2022-10-23T23:47:34.107Z,8.73
2022-10-23T23:50:38.226Z,7.22
2022-10-23T23:53:41.026Z,8.80
2022-10-23T23:56:43.597Z,9.47
2022-10-23T23:59:46.312Z,8.20
